Time;durP1;ratioP1;P1;durP2;ratioP2;P2;SDS_P1;SDS_P2;PMS_P1;PMS_P2;Temp;Humidity;BMP_temperature;BMP_pressure;BME280_temperature;BME280_humidity;BME280_pressure;Samples;Min_cycle;Max_cycle;Signal;HPM_P1;HPM_P2
2023/09/24 00:01:03;;;;;;;2.53;1.70;;;19.40;97.70;;;;;;5042027;28;20179;-11
2023/09/24 00:03:33;;;;;;;2.43;1.60;;;19.30;97.60;;;;;;5058753;28;20180;-13
2023/09/24 00:06:04;;;;;;;2.90;1.57;;;19.30;97.60;;;;;;5058596;28;20290;-13
2023/09/24 00:08:30;;;;;;;2.03;1.53;;;19.30;97.70;;;;;;5057727;28;20172;-12
2023/09/24 00:10:56;;;;;;;3.37;1.60;;;19.30;97.60;;;;;;5051265;28;20191;-13
2023/09/24 00:13:23;;;;;;;2.43;1.50;;;19.30;97.60;;;;;;5057156;28;20176;-14
2023/09/24 00:15:49;;;;;;;2.23;1.50;;;19.30;97.60;;;;;;5057390;28;20180;-12
2023/09/24 00:18:19;;;;;;;3.17;1.50;;;19.30;97.60;;;;;;5057439;28;20279;-13
2023/09/24 00:20:46;;;;;;;2.03;1.40;;;19.30;97.60;;;;;;5057581;28;20184;-13
2023/09/24 00:23:29;;;;;;;3.43;1.50;;;19.30;97.60;;;;;;5058623;28;20509;-12
2023/09/24 00:25:55;;;;;;;1.70;1.40;;;19.20;97.60;;;;;;5057757;28;20218;-13
2023/09/24 00:28:22;;;;;;;2.20;1.50;;;19.20;97.50;;;;;;5058204;28;20176;-12
2023/09/24 00:30:50;;;;;;;2.90;1.50;;;19.20;97.60;;;;;;5057325;28;20176;-12
2023/09/24 00:33:21;;;;;;;3.30;1.50;;;19.30;97.60;;;;;;5058200;28;20573;-13
2023/09/24 00:35:47;;;;;;;1.77;1.30;;;19.20;97.60;;;;;;5057697;28;20179;-12
2023/09/24 00:38:13;;;;;;;2.13;1.60;;;19.20;97.60;;;;;;5057759;28;20266;-12
2023/09/24 00:40:38;;;;;;;4.40;1.50;;;19.20;97.60;;;;;;5058172;28;20683;-13
2023/09/24 00:43:26;;;;;;;3.13;1.50;;;19.20;97.50;;;;;;5058067;28;20168;-12
2023/09/24 00:45:52;;;;;;;3.53;1.53;;;19.20;97.60;;;;;;5056518;28;20204;-12
2023/09/24 00:48:17;;;;;;;2.57;1.40;;;19.20;97.60;;;;;;5057374;28;20238;-14
2023/09/24 00:50:44;;;;;;;2.53;1.77;;;19.10;97.50;;;;;;5058040;28;20204;-12
2023/09/24 00:53:46;;;;;;;2.87;1.73;;;19.10;97.50;;;;;;5057637;28;20242;-13
2023/09/24 00:56:12;;;;;;;1.40;1.30;;;19.10;97.50;;;;;;5016716;28;20688;-11
2023/09/24 00:58:39;;;;;;;2.50;1.40;;;19.00;97.70;;;;;;5061778;28;20188;-11
2023/09/24 01:01:05;;;;;;;4.33;1.90;;;19.00;97.80;;;;;;5058035;28;20176;-10
2023/09/24 01:03:40;;;;;;;2.73;1.57;;;18.90;97.70;;;;;;5058048;28;20427;-10
2023/09/24 01:06:06;;;;;;;4.10;1.80;;;18.90;97.80;;;;;;5057437;28;20654;-11
2023/09/24 01:08:33;;;;;;;1.90;1.47;;;18.80;98.00;;;;;;5057003;28;20168;-9
2023/09/24 01:11:03;;;;;;;2.33;1.40;;;18.80;98.00;;;;;;5057625;28;20246;-11
2023/09/24 01:13:51;;;;;;;2.20;1.53;;;18.80;97.90;;;;;;5057058;28;20180;-11
2023/09/24 01:16:17;;;;;;;2.30;1.40;;;18.80;97.90;;;;;;5057621;28;20605;-10
2023/09/24 01:18:44;;;;;;;4.33;1.40;;;18.80;97.80;;;;;;5057742;28;20195;-11
2023/09/24 01:21:12;;;;;;;2.53;1.50;;;18.80;97.80;;;;;;5056872;28;20235;-11
2023/09/24 01:23:40;;;;;;;2.00;1.37;;;18.80;97.70;;;;;;5056947;28;20184;-9
2023/09/24 01:26:08;;;;;;;3.73;1.60;;;18.90;97.70;;;;;;5057811;28;20217;-10
2023/09/24 01:28:34;;;;;;;2.17;1.47;;;18.90;97.60;;;;;;5057254;28;20226;-11
2023/09/24 01:31:00;;;;;;;2.87;1.27;;;18.90;97.60;;;;;;5056566;28;20177;-12
2023/09/24 01:33:27;;;;;;;2.10;1.30;;;18.90;97.60;;;;;;5056841;28;20240;-12
2023/09/24 01:35:53;;;;;;;2.67;1.60;;;18.90;97.60;;;;;;5056689;28;20180;-10
2023/09/24 01:38:19;;;;;;;2.07;1.50;;;18.90;97.60;;;;;;5057213;28;20184;-12
2023/09/24 01:40:45;;;;;;;3.63;1.40;;;18.80;97.50;;;;;;5056672;28;20554;-11
2023/09/24 01:43:39;;;;;;;2.47;1.40;;;18.90;97.60;;;;;;5057458;28;20223;-10
2023/09/24 01:46:08;;;;;;;1.60;1.20;;;18.80;97.50;;;;;;5056873;28;20220;-11
2023/09/24 01:48:34;;;;;;;1.40;1.30;;;18.80;97.50;;;;;;5034507;28;20254;-12
2023/09/24 01:51:06;;;;;;;2.23;1.43;;;18.80;97.80;;;;;;5057424;28;20180;-14
2023/09/24 01:53:32;;;;;;;1.90;1.30;;;18.80;97.50;;;;;;5056448;28;20180;-12
2023/09/24 01:56:00;;;;;;;2.43;1.40;;;18.80;97.50;;;;;;5056637;28;20450;-12
2023/09/24 01:58:26;;;;;;;1.47;1.10;;;18.80;97.40;;;;;;5059585;28;20238;-11
2023/09/24 02:00:55;;;;;;;1.90;1.30;;;18.80;97.40;;;;;;5060284;28;20184;-11
2023/09/24 02:03:21;;;;;;;1.40;1.20;;;18.70;97.40;;;;;;5061113;28;20180;-11
2023/09/24 02:05:46;;;;;;;2.63;1.43;;;18.70;97.40;;;;;;5042369;28;20220;-11
2023/09/24 02:08:12;;;;;;;1.73;1.30;;;18.70;97.40;;;;;;5041102;28;20526;-11
2023/09/24 02:10:42;;;;;;;3.30;1.53;;;18.70;97.30;;;;;;5040919;28;20177;-11
2023/09/24 02:13:12;;;;;;;4.00;1.40;;;18.70;97.40;;;;;;5057073;28;20187;-11
2023/09/24 02:15:46;;;;;;;2.93;1.40;;;18.70;97.70;;;;;;5056475;28;20191;-11
2023/09/24 02:18:12;;;;;;;2.17;1.40;;;18.70;97.40;;;;;;5040171;28;20538;-11
2023/09/24 02:20:41;;;;;;;1.97;1.27;;;18.70;97.40;;;;;;5041052;28;20176;-11
2023/09/24 02:23:08;;;;;;;4.10;1.33;;;18.60;97.40;;;;;;5040976;28;20179;-12
2023/09/24 02:25:37;;;;;;;2.27;1.30;;;18.60;97.40;;;;;;5041174;28;20620;-11
2023/09/24 02:28:04;;;;;;;3.13;1.17;;;18.60;97.40;;;;;;5040867;28;20168;-12
2023/09/24 02:30:34;;;;;;;2.00;1.10;;;18.60;97.40;;;;;;5040450;28;20235;-11
2023/09/24 02:33:02;;;;;;;2.70;1.40;;;18.60;97.40;;;;;;5041012;28;20149;-11
2023/09/24 02:35:28;;;;;;;1.90;1.33;;;18.60;97.40;;;;;;5040807;28;20201;-11
2023/09/24 02:38:00;;;;;;;2.90;1.60;;;18.60;97.40;;;;;;5057239;28;20268;-11
2023/09/24 02:40:27;;;;;;;2.37;1.70;;;18.50;97.40;;;;;;5040198;28;20185;-11
2023/09/24 02:42:58;;;;;;;1.93;1.40;;;18.50;97.40;;;;;;5040223;28;20542;-11
2023/09/24 02:45:26;;;;;;;3.00;1.67;;;18.50;97.40;;;;;;5040525;28;20201;-14
2023/09/24 02:47:58;;;;;;;1.87;1.30;;;18.50;97.40;;;;;;5040765;28;20247;-12
2023/09/24 02:50:27;;;;;;;2.00;1.30;;;18.50;97.50;;;;;;5039834;28;20559;-11
2023/09/24 02:53:02;;;;;;;4.17;1.47;;;18.50;97.40;;;;;;5040537;28;20153;-12
2023/09/24 02:55:36;;;;;;;2.10;1.40;;;18.50;97.50;;;;;;5040386;28;20165;-10
2023/09/24 02:58:04;;;;;;;1.73;1.30;;;18.50;97.40;;;;;;5040461;28;20207;-11
2023/09/24 03:00:42;;;;;;;2.30;1.50;;;18.50;97.40;;;;;;5040477;28;20169;-12
2023/09/24 03:03:09;;;;;;;4.20;1.60;;;18.50;97.40;;;;;;5039536;28;20687;-11
2023/09/24 03:05:46;;;;;;;2.53;1.50;;;18.40;97.40;;;;;;5040149;28;20224;-11
2023/09/24 03:08:15;;;;;;;2.23;1.23;;;18.40;97.40;;;;;;5039496;28;20169;-12
2023/09/24 03:10:41;;;;;;;3.33;1.40;;;18.50;97.40;;;;;;5040398;28;20436;-11
2023/09/24 03:13:07;;;;;;;2.50;1.30;;;18.40;97.40;;;;;;5055856;28;20239;-12
2023/09/24 03:15:45;;;;;;;2.13;1.63;;;18.40;97.50;;;;;;5039258;28;20177;-11
2023/09/24 03:18:11;;;;;;;2.20;1.53;;;18.40;97.50;;;;;;5040143;28;20231;-12
2023/09/24 03:20:37;;;;;;;1.63;1.30;;;18.40;97.50;;;;;;5039171;28;20187;-12
2023/09/24 03:23:08;;;;;;;2.53;1.40;;;18.40;97.40;;;;;;5040012;28;20173;-12
2023/09/24 03:25:40;;;;;;;3.43;1.37;;;18.40;97.40;;;;;;5040132;28;20547;-11
2023/09/24 03:28:06;;;;;;;3.83;1.57;;;18.40;97.40;;;;;;5038984;28;20173;-11
2023/09/24 03:30:32;;;;;;;2.47;1.30;;;18.40;97.40;;;;;;5039738;28;20160;-12
2023/09/24 03:32:58;;;;;;;2.40;1.60;;;18.30;97.40;;;;;;5055650;28;20237;-12
2023/09/24 03:38:10;;;;;;;2.80;1.53;;;18.30;97.40;;;;;;5039572;28;20245;-10
2023/09/24 03:40:36;;;;;;;2.73;1.50;;;18.30;97.40;;;;;;5039529;28;20200;-11
2023/09/24 03:43:01;;;;;;;2.23;1.40;;;18.30;97.50;;;;;;5039039;28;20606;-11
2023/09/24 03:45:27;;;;;;;2.23;1.40;;;18.30;97.40;;;;;;5039674;28;20197;-10
2023/09/24 03:48:03;;;;;;;2.20;1.37;;;18.30;97.40;;;;;;5039339;28;20169;-12
2023/09/24 03:50:28;;;;;;;3.57;1.70;;;18.30;97.40;;;;;;5054468;28;20192;-11
2023/09/24 03:52:54;;;;;;;2.53;1.40;;;18.30;97.50;;;;;;5038685;28;20184;-11
2023/09/24 03:55:20;;;;;;;1.57;1.47;;;18.30;97.40;;;;;;5038897;28;20215;-11
2023/09/24 03:58:17;;;;;;;3.90;1.57;;;18.30;97.40;;;;;;5054482;28;20181;-11
2023/09/24 04:00:43;;;;;;;1.60;1.50;;;18.30;97.40;;;;;;5062290;22;20216;-12
2023/09/24 04:03:09;;;;;;;2.07;1.53;;;18.20;97.40;;;;;;5034392;28;20288;-11
2023/09/24 04:05:35;;;;;;;1.60;1.50;;;18.20;97.30;;;;;;5034439;28;20304;-13
2023/09/24 04:08:03;;;;;;;2.20;1.60;;;18.20;97.40;;;;;;5034971;28;20481;-12
2023/09/24 04:10:30;;;;;;;2.37;1.60;;;18.20;97.40;;;;;;5036074;28;20607;-11
2023/09/24 04:12:57;;;;;;;1.70;1.37;;;18.20;97.40;;;;;;5035314;28;20169;-11
2023/09/24 04:15:29;;;;;;;1.80;1.33;;;18.20;97.40;;;;;;5036349;28;20196;-12
2023/09/24 04:17:57;;;;;;;3.73;1.40;;;18.20;97.50;;;;;;5036278;28;20223;-11
2023/09/24 04:20:26;;;;;;;2.43;1.50;;;18.20;97.50;;;;;;5036436;28;20177;-9
2023/09/24 04:22:51;;;;;;;2.30;1.57;;;18.20;97.40;;;;;;5035929;28;20616;-10
2023/09/24 04:25:21;;;;;;;1.60;1.30;;;18.20;97.50;;;;;;5033855;28;20216;-12
2023/09/24 04:27:48;;;;;;;2.40;1.50;;;18.20;97.50;;;;;;5034889;28;20177;-13
2023/09/24 04:30:17;;;;;;;2.53;1.50;;;18.20;97.50;;;;;;5034658;28;20205;-12
2023/09/24 04:32:53;;;;;;;2.13;1.30;;;18.20;97.40;;;;;;5034886;28;20302;-12
2023/09/24 04:35:20;;;;;;;2.10;1.30;;;18.10;97.40;;;;;;5034704;28;20184;-12
2023/09/24 04:37:46;;;;;;;3.30;1.57;;;18.10;97.40;;;;;;5033415;28;20272;-11
2023/09/24 04:40:14;;;;;;;3.53;1.63;;;18.10;97.40;;;;;;5033534;28;20188;-11
2023/09/24 04:42:45;;;;;;;1.80;1.50;;;18.10;97.40;;;;;;5034541;28;20164;-11
2023/09/24 04:45:14;;;;;;;2.30;1.50;;;18.10;97.40;;;;;;5034029;28;20609;-13
2023/09/24 04:47:41;;;;;;;1.73;1.30;;;18.10;97.40;;;;;;5032772;28;20206;-12
2023/09/24 04:50:11;;;;;;;2.50;1.40;;;18.10;97.30;;;;;;5033206;28;20400;-12
2023/09/24 04:52:38;;;;;;;1.40;1.30;;;18.10;97.30;;;;;;5033409;28;20272;-12
2023/09/24 04:55:05;;;;;;;1.80;1.43;;;18.10;97.30;;;;;;5032666;28;20581;-12
2023/09/24 04:57:31;;;;;;;2.23;1.73;;;18.10;97.30;;;;;;5032842;28;20180;-12
2023/09/24 04:59:57;;;;;;;2.00;1.50;;;18.10;97.30;;;;;;5033290;28;20465;-12
2023/09/24 05:02:23;;;;;;;2.07;1.53;;;18.10;97.30;;;;;;5031323;28;20580;-11
2023/09/24 05:04:54;;;;;;;3.90;1.30;;;18.10;97.20;;;;;;5034485;28;20489;-12
2023/09/24 05:07:20;;;;;;;1.67;1.47;;;18.10;97.30;;;;;;5033514;28;20169;-10
2023/09/24 05:09:46;;;;;;;2.27;1.50;;;18.10;97.30;;;;;;5033474;28;20173;-13
2023/09/24 05:12:13;;;;;;;1.90;1.40;;;18.10;97.40;;;;;;5033421;28;20220;-11
2023/09/24 05:14:39;;;;;;;1.63;1.43;;;18.00;97.30;;;;;;5016096;28;20490;-11
2023/09/24 05:17:05;;;;;;;3.27;1.70;;;18.10;97.30;;;;;;5033399;28;20256;-12
2023/09/24 05:19:31;;;;;;;1.73;1.23;;;18.00;97.30;;;;;;5031747;28;20275;-12
2023/09/24 05:21:57;;;;;;;1.50;1.20;;;18.00;97.30;;;;;;5030600;28;20187;-12
2023/09/24 05:24:23;;;;;;;1.83;1.30;;;18.00;97.20;;;;;;5031784;28;20172;-12
2023/09/24 05:26:49;;;;;;;1.57;1.40;;;18.00;97.20;;;;;;5033227;28;20239;-12
2023/09/24 05:29:14;;;;;;;1.97;1.50;;;18.00;97.20;;;;;;5032393;28;20264;-10
2023/09/24 05:31:40;;;;;;;3.00;1.87;;;18.00;97.20;;;;;;5034288;28;20168;-11
2023/09/24 05:34:07;;;;;;;1.90;1.57;;;18.00;97.20;;;;;;5033986;28;20177;-13
2023/09/24 05:36:33;;;;;;;3.00;1.60;;;18.00;97.30;;;;;;5032515;28;20173;-13
2023/09/24 05:39:04;;;;;;;2.17;1.60;;;18.00;97.20;;;;;;5032983;28;20238;-12
2023/09/24 05:41:30;;;;;;;2.30;1.53;;;17.90;97.20;;;;;;5031172;28;20276;-12
2023/09/24 05:44:01;;;;;;;4.03;1.60;;;17.90;97.10;;;;;;5030830;28;20271;-12
2023/09/24 05:46:27;;;;;;;2.23;1.53;;;17.90;97.10;;;;;;5030300;28;20648;-11
2023/09/24 05:48:58;;;;;;;1.73;1.43;;;17.90;97.10;;;;;;5032083;28;20256;-12
2023/09/24 05:51:27;;;;;;;1.87;1.50;;;17.90;97.10;;;;;;5032525;28;20750;-12
2023/09/24 05:53:53;;;;;;;2.10;1.70;;;17.90;97.10;;;;;;5030272;28;20223;-12
2023/09/24 05:56:19;;;;;;;2.00;1.50;;;17.90;97.20;;;;;;5031083;28;20177;-11
2023/09/24 05:58:44;;;;;;;1.70;1.47;;;17.90;97.10;;;;;;5031118;28;20169;-11
2023/09/24 06:01:18;;;;;;;2.17;1.50;;;17.90;97.10;;;;;;5031106;28;20575;-11
2023/09/24 06:03:43;;;;;;;2.30;1.57;;;17.90;97.10;;;;;;5032824;28;20435;-11
2023/09/24 06:06:09;;;;;;;1.83;1.43;;;17.90;97.10;;;;;;5032145;28;20468;-12
2023/09/24 06:08:39;;;;;;;2.20;1.50;;;17.90;97.10;;;;;;5030213;28;20250;-12
2023/09/24 06:11:07;;;;;;;2.03;1.80;;;17.90;97.30;;;;;;5030740;28;20319;-12
2023/09/24 06:13:34;;;;;;;1.83;1.30;;;18.00;96.90;;;;;;5031513;28;20165;-12
2023/09/24 06:16:00;;;;;;;2.90;1.70;;;18.00;97.00;;;;;;5032113;28;20800;-11
2023/09/24 06:18:26;;;;;;;1.70;1.50;;;18.00;96.90;;;;;;5029219;28;20187;-12
2023/09/24 06:20:52;;;;;;;2.40;1.57;;;18.00;96.80;;;;;;5030889;28;20528;-11
2023/09/24 06:23:17;;;;;;;2.40;1.40;;;18.10;97.00;;;;;;5034409;28;20196;-12
2023/09/24 06:25:43;;;;;;;2.03;1.70;;;18.10;96.80;;;;;;5036055;28;20228;-12
2023/09/24 06:28:09;;;;;;;1.70;1.40;;;18.20;96.60;;;;;;5036923;28;20205;-12
2023/09/24 06:30:38;;;;;;;1.60;1.33;;;18.20;96.50;;;;;;5036177;28;20761;-12
2023/09/24 06:33:05;;;;;;;1.90;1.70;;;18.20;96.30;;;;;;5033347;28;20242;-12
2023/09/24 06:35:37;;;;;;;2.10;1.57;;;18.30;96.30;;;;;;5030767;28;20550;-12
2023/09/24 06:38:03;;;;;;;2.00;1.50;;;18.30;96.20;;;;;;5030288;28;20427;-12
2023/09/24 06:40:30;;;;;;;1.60;1.30;;;18.40;96.30;;;;;;5030118;28;20230;-11
2023/09/24 06:42:56;;;;;;;3.27;1.33;;;18.40;96.00;;;;;;5030500;28;20256;-12
2023/09/24 06:45:22;;;;;;;2.63;1.40;;;18.40;95.80;;;;;;5032764;28;20291;-15
2023/09/24 06:47:48;;;;;;;1.67;1.43;;;18.50;95.70;;;;;;5033860;28;20285;-12
2023/09/24 06:50:13;;;;;;;1.73;1.40;;;18.50;96.40;;;;;;5033791;28;20456;-11
2023/09/24 06:52:39;;;;;;;1.83;1.47;;;18.50;95.80;;;;;;5034350;28;20239;-12
2023/09/24 06:55:09;;;;;;;1.43;1.33;;;18.60;95.70;;;;;;5033258;28;20235;-13
2023/09/24 06:57:36;;;;;;;1.70;1.50;;;18.60;95.70;;;;;;5032491;28;20184;-15
2023/09/24 07:00:04;;;;;;;1.63;1.50;;;18.60;95.80;;;;;;5031319;28;20339;-13
2023/09/24 07:02:30;;;;;;;2.17;1.53;;;18.70;95.50;;;;;;5032560;28;20189;-12
2023/09/24 07:04:55;;;;;;;1.60;1.40;;;18.70;95.40;;;;;;5033338;28;20247;-14
2023/09/24 07:07:22;;;;;;;2.00;1.60;;;18.80;95.40;;;;;;5032223;28;20181;-15
2023/09/24 07:09:48;;;;;;;1.57;1.30;;;18.80;95.50;;;;;;5031319;28;20187;-13
2023/09/24 07:12:14;;;;;;;3.20;2.10;;;18.90;95.30;;;;;;5030631;28;20291;-16
2023/09/24 07:14:40;;;;;;;2.33;1.67;;;18.90;95.40;;;;;;5033298;28;20271;-14
2023/09/24 07:17:06;;;;;;;3.33;2.63;;;19.00;95.30;;;;;;5030842;28;20185;-13
2023/09/24 07:19:33;;;;;;;3.50;2.10;;;19.00;95.30;;;;;;5030535;28;20570;-13
2023/09/24 07:21:59;;;;;;;5.63;1.80;;;19.10;94.90;;;;;;5030980;28;20278;-11
2023/09/24 07:24:24;;;;;;;3.03;1.67;;;19.10;95.20;;;;;;5031257;28;20228;-11
2023/09/24 07:26:51;;;;;;;3.40;2.13;;;19.20;95.00;;;;;;5031621;28;20505;-11
2023/09/24 07:29:17;;;;;;;3.50;2.40;;;19.20;94.70;;;;;;5034684;28;20452;-10
2023/09/24 07:31:43;;;;;;;4.60;2.00;;;19.30;94.30;;;;;;5033861;28;20368;-12
2023/09/24 07:34:10;;;;;;;3.60;2.00;;;19.20;94.50;;;;;;5033826;28;20314;-11
2023/09/24 07:36:36;;;;;;;3.90;2.10;;;19.30;94.50;;;;;;5031921;28;20179;-11
2023/09/24 07:39:03;;;;;;;4.03;2.20;;;19.30;94.30;;;;;;5032387;28;20168;-11
2023/09/24 07:41:29;;;;;;;3.67;2.13;;;19.40;94.20;;;;;;5031221;28;20197;-12
2023/09/24 07:43:55;;;;;;;3.77;2.27;;;19.40;93.90;;;;;;5031579;28;20177;-12
2023/09/24 07:46:20;;;;;;;5.23;2.30;;;19.50;94.00;;;;;;5032051;28;20211;-12
2023/09/24 07:48:48;;;;;;;3.03;2.10;;;19.50;93.70;;;;;;5030290;28;20329;-13
2023/09/24 07:51:17;;;;;;;4.37;2.10;;;19.60;93.80;;;;;;5032285;28;20161;-12
2023/09/24 07:53:45;;;;;;;3.17;1.93;;;19.60;93.80;;;;;;5031398;28;20410;-13
2023/09/24 07:56:11;;;;;;;3.80;2.00;;;19.60;93.50;;;;;;5031321;28;20554;-12
2023/09/24 07:58:39;;;;;;;3.40;1.77;;;19.70;93.60;;;;;;5032857;28;20183;-12
2023/09/24 08:01:10;;;;;;;4.80;1.70;;;19.70;93.70;;;;;;5030944;28;20271;-14
2023/09/24 08:03:36;;;;;;;2.90;1.47;;;19.80;93.30;;;;;;5029882;28;20176;-12
2023/09/24 08:06:04;;;;;;;3.27;1.70;;;19.80;93.20;;;;;;5027864;28;20336;-13
2023/09/24 08:08:31;;;;;;;2.70;1.87;;;19.90;93.00;;;;;;5028182;28;20552;-12
2023/09/24 08:10:58;;;;;;;4.83;1.93;;;20.00;92.90;;;;;;5027823;28;20176;-13
2023/09/24 08:13:24;;;;;;;3.10;1.63;;;20.00;92.70;;;;;;5029175;28;20173;-13
2023/09/24 08:15:50;;;;;;;2.53;1.60;;;20.10;92.90;;;;;;5026413;28;20188;-12
2023/09/24 08:18:19;;;;;;;3.50;1.80;;;20.10;92.60;;;;;;5029754;28;20540;-12
2023/09/24 08:20:45;;;;;;;2.90;1.70;;;20.20;92.30;;;;;;5027806;28;20230;-12
2023/09/24 08:23:13;;;;;;;4.80;1.93;;;20.30;92.20;;;;;;5029102;28;20246;-13
2023/09/24 08:25:40;;;;;;;3.80;1.97;;;20.50;91.80;;;;;;5029892;28;20467;-12
2023/09/24 08:28:06;;;;;;;3.20;1.67;;;20.60;91.50;;;;;;5030553;28;20373;-12
2023/09/24 08:30:33;;;;;;;3.20;1.77;;;20.70;91.10;;;;;;5032040;28;20169;-12
2023/09/24 08:32:59;;;;;;;2.70;1.60;;;20.90;90.20;;;;;;5030152;28;20182;-11
2023/09/24 08:35:26;;;;;;;4.50;1.87;;;20.90;90.10;;;;;;5031745;28;20173;-13
2023/09/24 08:37:52;;;;;;;3.17;1.50;;;21.00;89.70;;;;;;5031019;28;20271;-12
2023/09/24 08:40:18;;;;;;;7.63;1.90;;;21.00;90.00;;;;;;5029136;28;20205;-13
2023/09/24 08:42:48;;;;;;;3.00;1.73;;;21.00;89.50;;;;;;5031407;28;20425;-12
2023/09/24 08:45:18;;;;;;;4.43;1.63;;;20.90;90.00;;;;;;5031272;28;20288;-12
2023/09/24 08:47:45;;;;;;;3.10;1.50;;;21.00;90.60;;;;;;5030729;28;20233;-15
2023/09/24 08:50:11;;;;;;;5.10;1.47;;;20.90;90.40;;;;;;5030454;28;20634;-13
2023/09/24 08:52:39;;;;;;;4.10;1.80;;;20.90;90.40;;;;;;5030298;28;20545;-13
2023/09/24 08:55:08;;;;;;;4.60;1.60;;;20.90;90.00;;;;;;5031241;28;20187;-11
2023/09/24 08:57:34;;;;;;;2.53;1.33;;;20.90;90.80;;;;;;5032232;28;20231;-12
2023/09/24 09:00:01;;;;;;;5.77;1.50;;;20.90;90.80;;;;;;5030714;28;20177;-13
2023/09/24 09:02:28;;;;;;;3.30;1.50;;;20.90;90.70;;;;;;5029094;28;20188;-11
2023/09/24 09:04:55;;;;;;;5.43;1.70;;;20.90;90.00;;;;;;5031595;28;20192;-13
2023/09/24 09:07:21;;;;;;;3.43;1.40;;;20.90;90.70;;;;;;5028802;28;20525;-11
2023/09/24 09:09:55;;;;;;;3.03;1.43;;;20.90;90.70;;;;;;5022246;28;20173;-11
2023/09/24 09:12:23;;;;;;;3.47;1.60;;;20.90;90.80;;;;;;5012032;28;20161;-12
2023/09/24 09:14:49;;;;;;;6.80;1.60;;;20.90;90.90;;;;;;5020356;28;20215;-11
2023/09/24 09:17:15;;;;;;;5.20;1.80;;;20.90;91.10;;;;;;5033875;28;20183;-11
2023/09/24 09:19:52;;;;;;;2.87;1.30;;;20.90;91.20;;;;;;5016739;28;20430;-12
2023/09/24 09:22:20;;;;;;;3.20;1.50;;;21.00;90.90;;;;;;5009449;28;20343;-13
2023/09/24 09:25:06;;;;;;;4.07;1.60;;;21.00;90.70;;;;;;5008201;28;20205;-11
2023/09/24 09:27:35;;;;;;;2.30;1.40;;;21.00;91.10;;;;;;5009079;28;20214;-12
2023/09/24 09:30:15;;;;;;;2.28;1.40;;;21.00;90.80;;;;;;5008726;28;20177;-13
2023/09/24 09:32:43;;;;;;;1.67;1.20;;;21.00;90.80;;;;;;5008623;28;20204;-12
2023/09/24 09:35:09;;;;;;;3.37;1.40;;;21.00;90.80;;;;;;5009152;28;20180;-13
2023/09/24 09:37:35;;;;;;;3.40;1.50;;;21.00;91.10;;;;;;5008218;28;20563;-13
2023/09/24 09:40:01;;;;;;;4.85;1.58;;;21.00;90.80;;;;;;5009016;28;20169;-12
2023/09/24 09:42:34;;;;;;;3.43;1.40;;;21.00;91.10;;;;;;5009043;28;20365;-13
2023/09/24 09:45:07;;;;;;;3.33;1.60;;;21.00;91.10;;;;;;5009269;28;20204;-13
2023/09/24 09:47:37;;;;;;;8.27;1.60;;;21.00;90.60;;;;;;5007708;28;20329;-13
2023/09/24 09:50:04;;;;;;;9.52;2.45;;;21.30;90.90;;;;;;5007147;28;20201;-12
2023/09/24 09:52:38;;;;;;;10.75;1.90;;;21.40;91.20;;;;;;5009121;28;20186;-13
2023/09/24 09:55:06;;;;;;;12.02;1.80;;;21.50;90.70;;;;;;5005905;28;20251;-13
2023/09/24 09:57:33;;;;;;;4.63;1.50;;;21.50;90.50;;;;;;5007378;28;20715;-11
2023/09/24 10:00:09;;;;;;;5.50;1.40;;;21.50;90.20;;;;;;5006640;28;20243;-12
2023/09/24 10:02:35;;;;;;;7.40;1.77;;;21.50;89.70;;;;;;5005773;28;20254;-12
2023/09/24 10:05:02;;;;;;;5.90;1.45;;;21.60;89.60;;;;;;5006311;28;20209;-12
2023/09/24 10:07:29;;;;;;;6.17;1.70;;;21.50;89.50;;;;;;5006640;28;20177;-14
2023/09/24 10:09:55;;;;;;;5.07;1.50;;;21.50;89.60;;;;;;5007056;28;20478;-13
2023/09/24 10:12:36;;;;;;;4.70;1.53;;;21.50;89.40;;;;;;5004539;28;20622;-14
2023/09/24 10:15:28;;;;;;;11.33;1.83;;;21.60;89.20;;;;;;5003491;28;20308;-12
2023/09/24 10:18:09;;;;;;;5.63;1.47;;;21.60;86.10;;;;;;5002755;28;20421;-13
2023/09/24 10:20:50;;;;;;;4.93;1.80;;;21.60;84.90;;;;;;5008640;28;20264;-13
2023/09/24 10:23:28;;;;;;;5.03;1.60;;;21.70;87.40;;;;;;5008191;28;20555;-13
2023/09/24 10:25:56;;;;;;;2.60;1.20;;;21.70;87.70;;;;;;5006572;28;20248;-12
2023/09/24 10:28:42;;;;;;;8.50;1.87;;;21.70;83.10;;;;;;5007195;28;20169;-12
2023/09/24 10:31:10;;;;;;;3.67;1.30;;;21.80;84.40;;;;;;5008997;28;20173;-11
2023/09/24 10:33:57;;;;;;;5.80;1.53;;;21.90;74.20;;;;;;5010328;28;20683;-13
2023/09/24 10:36:35;;;;;;;5.53;1.50;;;22.00;78.10;;;;;;5009071;28;20184;-12
2023/09/24 10:39:17;;;;;;;3.23;1.20;;;22.00;72.30;;;;;;5008571;28;20177;-13
2023/09/24 10:42:11;;;;;;;2.63;1.37;;;22.00;68.40;;;;;;5008604;28;20356;-12
2023/09/24 10:44:39;;;;;;;2.90;1.30;;;21.90;70.10;;;;;;5012805;28;20170;-12
2023/09/24 10:47:23;;;;;;;2.57;1.20;;;21.50;68.90;;;;;;5011777;28;20566;-12
2023/09/24 10:49:50;;;;;;;4.90;1.70;;;21.50;72.70;;;;;;5012093;28;20188;-12
2023/09/24 10:52:16;;;;;;;3.23;1.20;;;21.50;73.80;;;;;;5009588;28;20559;-11
2023/09/24 10:54:46;;;;;;;3.07;1.30;;;21.60;71.50;;;;;;5010906;28;20217;-11
2023/09/24 10:57:23;;;;;;;2.30;1.23;;;21.70;70.30;;;;;;5012171;28;20265;-13
2023/09/24 10:59:50;;;;;;;3.13;1.20;;;21.60;72.50;;;;;;5008894;28;20216;-12
2023/09/24 11:02:17;;;;;;;2.73;1.23;;;21.40;68.00;;;;;;5008635;28;20555;-12
2023/09/24 11:04:43;;;;;;;3.10;1.10;;;21.30;68.10;;;;;;5008736;28;20275;-12
2023/09/24 11:07:12;;;;;;;2.10;1.30;;;21.20;67.20;;;;;;5010247;28;20416;-12
2023/09/24 11:09:39;;;;;;;2.87;1.20;;;21.30;67.50;;;;;;5008402;28;20173;-12
2023/09/24 11:12:10;;;;;;;3.93;1.30;;;21.30;68.50;;;;;;5008197;28;20170;-12
2023/09/24 11:14:36;;;;;;;5.90;1.73;;;21.30;70.20;;;;;;5010324;28;20248;-13
2023/09/24 11:17:02;;;;;;;3.60;1.37;;;21.40;68.60;;;;;;5011136;28;20493;-13
2023/09/24 11:19:44;;;;;;;3.57;1.50;;;21.10;69.90;;;;;;5005907;28;20540;-12
2023/09/24 11:22:17;;;;;;;3.33;1.40;;;20.50;72.10;;;;;;5006168;28;20607;-12
2023/09/24 11:24:43;;;;;;;3.77;1.43;;;20.50;75.20;;;;;;5009163;28;20250;-13
2023/09/24 11:27:08;;;;;;;5.10;1.33;;;20.50;75.30;;;;;;5008856;28;20170;-12
2023/09/24 11:29:35;;;;;;;2.50;1.53;;;20.70;76.50;;;;;;5008411;28;20170;-11
2023/09/24 11:32:01;;;;;;;2.53;1.33;;;20.80;78.30;;;;;;5005939;28;20285;-11
2023/09/24 11:34:29;;;;;;;4.57;1.60;;;20.70;76.70;;;;;;5006859;28;20510;-11
2023/09/24 11:36:58;;;;;;;2.27;1.43;;;20.40;80.40;;;;;;5005342;28;20234;-12
2023/09/24 11:39:24;;;;;;;1.93;1.17;;;20.60;78.80;;;;;;5007877;28;20216;-11
2023/09/24 11:41:50;;;;;;;3.27;1.23;;;20.80;79.40;;;;;;5007263;28;20201;-12
2023/09/24 11:44:17;;;;;;;2.00;1.17;;;21.00;79.00;;;;;;5004338;28;20240;-11
2023/09/24 11:46:44;;;;;;;3.57;1.53;;;20.80;78.70;;;;;;5006614;28;20221;-13
2023/09/24 11:49:10;;;;;;;2.40;1.30;;;20.60;75.40;;;;;;5007883;28;20552;-12
2023/09/24 11:51:36;;;;;;;1.67;1.00;;;20.30;77.80;;;;;;5007119;28;20200;-11
2023/09/24 11:54:03;;;;;;;2.43;1.10;;;20.40;78.90;;;;;;5009144;28;20236;-11
2023/09/24 11:56:29;;;;;;;3.07;1.20;;;20.70;77.90;;;;;;5008852;28;20197;-12
2023/09/24 11:58:55;;;;;;;1.87;1.00;;;20.80;77.90;;;;;;5008589;28;20258;-10
2023/09/24 12:01:21;;;;;;;1.90;1.10;;;21.00;78.10;;;;;;5005480;28;20312;-11
2023/09/24 12:03:49;;;;;;;2.47;1.00;;;21.00;79.60;;;;;;5005960;28;20461;-12
2023/09/24 12:06:15;;;;;;;2.57;1.43;;;21.00;79.70;;;;;;5008705;28;20779;-11
2023/09/24 12:08:42;;;;;;;4.27;1.20;;;21.10;79.00;;;;;;5014704;28;20550;-11
2023/09/24 12:11:08;;;;;;;2.00;1.10;;;20.90;78.10;;;;;;5016781;28;20166;-12
2023/09/24 12:13:34;;;;;;;2.40;1.30;;;20.90;79.10;;;;;;5013215;28;20184;-11
2023/09/24 12:15:59;;;;;;;2.20;1.30;;;21.00;79.80;;;;;;5008243;28;20190;-12
2023/09/24 12:18:25;;;;;;;1.57;1.10;;;21.00;79.20;;;;;;5009231;28;20181;-11
2023/09/24 12:20:51;;;;;;;1.97;1.20;;;21.00;80.70;;;;;;5007901;28;20184;-12
2023/09/24 12:23:17;;;;;;;2.37;1.10;;;21.00;79.90;;;;;;5004946;28;20258;-12
2023/09/24 12:25:44;;;;;;;2.83;1.20;;;21.00;80.90;;;;;;5003584;28;20447;-13
2023/09/24 12:28:11;;;;;;;1.67;1.13;;;21.00;81.40;;;;;;5006337;28;20389;-11
2023/09/24 12:30:38;;;;;;;2.37;1.00;;;21.10;82.90;;;;;;4991418;28;20444;-13
2023/09/24 12:33:05;;;;;;;2.80;1.30;;;21.10;81.70;;;;;;5010276;28;20567;-14
2023/09/24 12:35:31;;;;;;;2.17;1.00;;;21.10;78.30;;;;;;5007912;28;20252;-12
2023/09/24 12:37:57;;;;;;;1.50;1.10;;;20.70;78.00;;;;;;5009679;28;20245;-14
2023/09/24 12:40:24;;;;;;;2.73;1.20;;;20.70;78.70;;;;;;5009995;28;20246;-11
2023/09/24 12:42:50;;;;;;;2.17;1.30;;;20.70;77.50;;;;;;5006095;28;20184;-12
2023/09/24 12:45:16;;;;;;;2.17;1.20;;;20.80;78.30;;;;;;5005311;28;20205;-11
2023/09/24 12:47:42;;;;;;;2.27;1.20;;;20.60;74.50;;;;;;5007257;28;20264;-11
2023/09/24 12:50:10;;;;;;;4.53;1.27;;;20.30;77.00;;;;;;5006692;28;20547;-11
2023/09/24 12:52:45;;;;;;;1.87;1.17;;;20.50;78.40;;;;;;5007592;28;20200;-11
2023/09/24 12:55:16;;;;;;;2.63;1.30;;;20.50;78.40;;;;;;5008556;28;20197;-11
2023/09/24 12:57:44;;;;;;;3.33;1.43;;;20.50;71.30;;;;;;5007763;28;20625;-11